createdAt,value
2018-06-12T00:00:32.636Z,90.80
2018-06-12T00:03:02.200Z,90.90
2018-06-12T00:05:31.981Z,90.80
2018-06-12T00:08:01.538Z,91.00
2018-06-12T00:10:30.910Z,91.20
2018-06-12T00:13:00.074Z,91.20
2018-06-12T00:15:29.213Z,90.90
2018-06-12T00:17:59.239Z,90.40
2018-06-12T00:20:28.620Z,91.50
2018-06-12T00:22:58.069Z,91.50
2018-06-12T00:25:27.458Z,91.40
2018-06-12T00:27:56.912Z,91.20
2018-06-12T00:30:26.306Z,90.90
2018-06-12T00:32:55.721Z,91.60
2018-06-12T00:35:25.274Z,91.90
2018-06-12T00:37:54.647Z,91.60
2018-06-12T00:40:23.919Z,91.30
2018-06-12T00:42:53.320Z,91.00
2018-06-12T00:45:22.852Z,91.50
2018-06-12T00:47:52.176Z,91.80
2018-06-12T00:50:21.627Z,91.40
2018-06-12T00:52:50.974Z,91.60
2018-06-12T00:55:20.488Z,91.80
2018-06-12T00:57:49.857Z,91.60
2018-06-12T01:00:19.333Z,91.80
2018-06-12T01:02:48.708Z,91.10
2018-06-12T01:05:18.220Z,91.30
2018-06-12T01:07:47.340Z,90.50
2018-06-12T01:10:16.816Z,91.40
2018-06-12T01:12:46.245Z,91.70
2018-06-12T01:15:15.733Z,90.80
2018-06-12T01:17:45.115Z,91.00
2018-06-12T01:20:14.593Z,91.20
2018-06-12T01:22:43.720Z,91.40
2018-06-12T01:25:13.282Z,91.60
2018-06-12T01:27:42.674Z,91.80
2018-06-12T01:30:12.252Z,91.80
2018-06-12T01:32:41.609Z,92.20
2018-06-12T01:35:11.134Z,91.70
2018-06-12T01:37:40.536Z,92.00
2018-06-12T01:40:10.296Z,91.90
2018-06-12T01:42:39.673Z,91.60
2018-06-12T01:45:09.236Z,92.00
2018-06-12T01:47:38.633Z,91.60
2018-06-12T01:50:08.169Z,91.50
2018-06-12T01:52:37.244Z,91.80
2018-06-12T01:55:06.459Z,91.90
2018-06-12T01:57:35.817Z,92.00
2018-06-12T02:00:05.605Z,92.20
2018-06-12T02:02:34.825Z,92.20
2018-06-12T02:05:04.283Z,92.20
2018-06-12T02:07:33.679Z,92.00
2018-06-12T02:10:03.246Z,91.90
2018-06-12T02:12:32.848Z,91.90
2018-06-12T02:15:02.362Z,91.60
2018-06-12T02:17:31.721Z,92.10
2018-06-12T02:20:02.257Z,92.40
2018-06-12T02:22:31.648Z,92.30
2018-06-12T02:25:00.817Z,92.00
2018-06-12T02:27:29.936Z,92.00
2018-06-12T02:29:59.475Z,92.00
2018-06-12T02:32:28.869Z,92.40
2018-06-12T02:34:58.449Z,92.40
2018-06-12T02:37:27.841Z,92.50
2018-06-12T02:39:57.374Z,92.20
2018-06-12T02:42:26.510Z,92.30
2018-06-12T02:44:55.985Z,92.40
2018-06-12T02:47:25.373Z,92.60
2018-06-12T02:49:54.937Z,92.30
2018-06-12T02:52:24.343Z,92.50
2018-06-12T02:54:53.886Z,91.80
2018-06-12T02:57:23.034Z,91.10
2018-06-12T02:59:52.529Z,91.30
2018-06-12T03:02:21.606Z,91.60
2018-06-12T03:04:50.781Z,91.70
2018-06-12T03:07:20.186Z,89.80
2018-06-12T03:09:49.689Z,91.00
2018-06-12T03:12:18.802Z,91.30
2018-06-12T03:14:48.310Z,91.20
2018-06-12T03:17:17.750Z,91.30
2018-06-12T03:19:47.224Z,91.30
2018-06-12T03:22:16.649Z,91.90
2018-06-12T03:24:46.025Z,91.00
2018-06-12T03:27:15.119Z,90.70
2018-06-12T03:29:44.510Z,90.70
2018-06-12T03:32:14.058Z,90.80
2018-06-12T03:34:43.473Z,90.40
2018-06-12T03:37:12.857Z,90.40
2018-06-12T03:39:42.346Z,90.90
2018-06-12T03:42:11.849Z,91.20
2018-06-12T03:44:40.970Z,91.40
2018-06-12T03:47:10.440Z,91.40
2018-06-12T03:49:39.862Z,91.50
2018-06-12T03:52:09.583Z,91.40
2018-06-12T03:54:38.708Z,91.00
2018-06-12T03:57:08.212Z,91.60
2018-06-12T03:59:37.600Z,91.00
2018-06-12T04:02:06.833Z,91.50
2018-06-12T04:04:36.233Z,91.20
2018-06-12T04:07:05.912Z,91.60
2018-06-12T04:09:35.405Z,91.30
2018-06-12T04:12:04.835Z,91.40
2018-06-12T04:14:34.233Z,90.50
2018-06-12T04:17:04.205Z,90.00
2018-06-12T04:19:33.697Z,89.40
2018-06-12T04:22:03.206Z,90.40
2018-06-12T04:24:32.619Z,90.80
2018-06-12T04:27:01.753Z,91.50
2018-06-12T04:29:31.145Z,91.90
2018-06-12T04:32:00.634Z,91.80
2018-06-12T04:34:29.993Z,92.40
2018-06-12T04:36:59.576Z,92.00
2018-06-12T04:41:57.980Z,91.60
2018-06-12T04:44:27.368Z,91.60
2018-06-12T04:46:56.822Z,91.10
2018-06-12T04:49:26.233Z,91.20
2018-06-12T04:51:55.624Z,90.60
2018-06-12T04:54:25.060Z,90.90
2018-06-12T04:56:54.499Z,90.70
2018-06-12T04:59:24.099Z,90.30
2018-06-12T05:01:57.886Z,89.20
2018-06-12T05:04:28.356Z,89.30
2018-06-12T05:06:57.724Z,88.70
2018-06-12T05:09:28.427Z,87.90
2018-06-12T05:11:57.806Z,88.40
2018-06-12T05:14:26.949Z,88.60
2018-06-12T05:16:56.420Z,88.00
2018-06-12T05:19:25.798Z,88.90
2018-06-12T05:21:56.244Z,88.70
2018-06-12T05:24:25.792Z,88.50
2018-06-12T05:26:55.221Z,88.10
2018-06-12T05:29:24.948Z,88.10
2018-06-12T05:31:54.490Z,88.00
2018-06-12T05:34:23.658Z,88.50
2018-06-12T05:36:53.044Z,87.20
2018-06-12T05:39:22.486Z,87.10
2018-06-12T05:41:51.976Z,86.20
2018-06-12T05:44:21.100Z,85.80
2018-06-12T05:46:50.563Z,86.20
2018-06-12T05:49:20.120Z,86.60
2018-06-12T05:51:49.568Z,86.00
2018-06-12T05:54:18.968Z,86.80
2018-06-12T05:56:48.401Z,86.00
2018-06-12T05:59:17.745Z,86.30
2018-06-12T06:01:47.145Z,85.30
2018-06-12T06:04:16.509Z,85.90
2018-06-12T06:06:46.066Z,84.90
2018-06-12T06:09:15.463Z,84.80
2018-06-12T06:11:45.039Z,85.00
2018-06-12T06:14:14.392Z,85.10
2018-06-12T06:16:43.944Z,85.20
2018-06-12T06:19:13.333Z,85.00
2018-06-12T06:24:40.726Z,84.30
2018-06-12T06:27:10.213Z,83.00
2018-06-12T06:29:39.809Z,84.60
2018-06-12T06:32:09.630Z,83.20
2018-06-12T06:34:38.976Z,83.60
2018-06-12T06:37:09.430Z,85.30
2018-06-12T06:39:38.558Z,84.80
2018-06-12T06:42:09.021Z,83.70
2018-06-12T06:44:38.424Z,84.40
2018-06-12T06:47:07.753Z,81.20
2018-06-12T06:49:37.217Z,83.80
2018-06-12T06:52:06.655Z,83.80
2018-06-12T06:54:36.109Z,84.60
2018-06-12T06:57:05.510Z,82.80
2018-06-12T06:59:35.237Z,83.90
2018-06-12T07:02:04.687Z,82.30
2018-06-12T07:04:34.201Z,81.00
2018-06-12T07:09:32.733Z,81.10
2018-06-12T07:12:02.980Z,81.70
2018-06-12T07:14:32.044Z,80.80
2018-06-12T07:17:01.788Z,78.50
2018-06-12T07:19:31.174Z,79.80
2018-06-12T07:22:00.623Z,78.10
2018-06-12T07:24:30.009Z,78.40
2018-06-12T07:26:59.436Z,78.20
2018-06-12T07:29:28.798Z,79.10
2018-06-12T07:31:58.293Z,79.40
2018-06-12T07:34:27.721Z,78.10
2018-06-12T07:36:56.922Z,77.70
2018-06-12T07:39:26.352Z,76.60
2018-06-12T07:41:55.893Z,77.80
2018-06-12T07:44:25.250Z,74.90
2018-06-12T07:46:54.388Z,78.00
2018-06-12T07:49:23.729Z,77.40
2018-06-12T07:51:53.109Z,76.20
2018-06-12T07:54:22.536Z,77.00
2018-06-12T07:56:51.973Z,72.90
2018-06-12T07:59:21.315Z,74.30
2018-06-12T08:01:50.752Z,75.60
2018-06-12T08:04:20.113Z,75.30
2018-06-12T08:06:49.579Z,72.20
2018-06-12T08:09:18.956Z,71.60
2018-06-12T08:11:48.348Z,74.80
2018-06-12T08:14:18.236Z,74.20
2018-06-12T08:16:47.717Z,73.90
2018-06-12T08:19:17.135Z,73.70
2018-06-12T08:21:46.585Z,73.90
2018-06-12T08:24:15.957Z,72.50
2018-06-12T08:26:45.396Z,73.70
2018-06-12T08:29:14.774Z,71.70
2018-06-12T08:31:44.304Z,73.70
2018-06-12T08:34:13.736Z,74.70
2018-06-12T08:36:43.225Z,73.80
2018-06-12T08:39:12.585Z,75.90
2018-06-12T08:41:42.045Z,71.20
2018-06-12T08:44:11.453Z,73.70
2018-06-12T08:46:40.857Z,74.20
2018-06-12T08:49:10.253Z,73.70
2018-06-12T08:51:39.590Z,74.90
2018-06-12T08:54:08.953Z,74.80
2018-06-12T08:56:38.432Z,73.80
2018-06-12T08:59:07.833Z,75.20
2018-06-12T09:01:38.293Z,72.80
2018-06-12T09:04:07.658Z,74.90
2018-06-12T09:09:06.770Z,73.40
2018-06-12T09:11:36.171Z,75.00
2018-06-12T09:14:05.549Z,75.60
2018-06-12T09:16:35.024Z,71.90
2018-06-12T09:19:04.418Z,72.00
2018-06-12T09:21:33.900Z,74.10
2018-06-12T09:24:03.328Z,71.50
2018-06-12T09:26:32.776Z,74.10
2018-06-12T09:29:02.197Z,73.70
2018-06-12T09:31:31.637Z,72.80
2018-06-12T09:34:01.008Z,72.00
2018-06-12T09:36:33.771Z,73.00
2018-06-12T09:39:06.484Z,74.20
2018-06-12T09:41:36.219Z,72.60
2018-06-12T09:44:05.618Z,71.80
2018-06-12T09:46:34.977Z,74.30
2018-06-12T09:49:04.148Z,75.30
2018-06-12T09:51:33.538Z,73.80
2018-06-12T09:54:02.658Z,73.30
2018-06-12T09:56:32.061Z,73.60
2018-06-12T09:59:01.399Z,73.50
2018-06-12T10:01:30.765Z,74.60
2018-06-12T10:03:59.955Z,72.50
2018-06-12T10:06:29.418Z,72.50
2018-06-12T10:08:58.779Z,72.70
2018-06-12T10:11:28.253Z,74.30
2018-06-12T10:13:57.633Z,75.70
2018-06-12T10:16:27.124Z,74.10
2018-06-12T10:18:56.289Z,74.20
2018-06-12T10:21:25.961Z,73.60
2018-06-12T10:23:55.390Z,74.30
2018-06-12T10:26:24.798Z,73.40
2018-06-12T10:28:54.165Z,75.00
2018-06-12T10:31:23.633Z,75.50
2018-06-12T10:33:53.049Z,73.70
2018-06-12T10:36:22.457Z,74.50
2018-06-12T10:38:51.873Z,74.50
2018-06-12T10:41:21.288Z,75.20
2018-06-12T10:43:50.722Z,75.60
2018-06-12T10:46:21.161Z,74.80
2018-06-12T10:48:50.545Z,74.50
2018-06-12T10:51:20.053Z,74.10
2018-06-12T10:53:49.467Z,74.70
2018-06-12T10:56:18.954Z,75.10
2018-06-12T10:58:48.336Z,76.20
2018-06-12T11:01:17.784Z,74.70
2018-06-12T11:03:47.161Z,74.30
2018-06-12T11:06:17.560Z,77.60
2018-06-12T11:08:46.909Z,77.20
2018-06-12T11:11:16.385Z,79.20
2018-06-12T11:13:45.775Z,76.20
2018-06-12T11:16:15.241Z,76.60
2018-06-12T11:18:44.650Z,76.60
2018-06-12T11:21:14.098Z,77.40
2018-06-12T11:23:43.491Z,77.30
2018-06-12T11:26:12.910Z,77.40
2018-06-12T11:28:42.255Z,78.30
2018-06-12T11:31:11.718Z,76.10
2018-06-12T11:33:41.122Z,75.20
2018-06-12T11:36:10.593Z,75.70
2018-06-12T11:38:40.025Z,75.70
2018-06-12T11:41:09.618Z,75.20
2018-06-12T11:43:39.017Z,76.10
2018-06-12T11:46:08.472Z,76.20
2018-06-12T11:48:37.890Z,75.20
2018-06-12T11:51:07.306Z,78.50
2018-06-12T11:53:36.669Z,77.50
2018-06-12T11:56:06.586Z,75.20
2018-06-12T11:58:36.020Z,74.90
2018-06-12T12:01:05.916Z,75.30
2018-06-12T12:03:35.161Z,74.70
2018-06-12T12:06:04.695Z,75.50
2018-06-12T12:08:34.049Z,75.70
2018-06-12T12:11:04.481Z,76.20
2018-06-12T12:13:33.899Z,75.80
2018-06-12T12:16:03.709Z,75.90
2018-06-12T12:18:33.088Z,76.20
2018-06-12T12:21:02.852Z,76.20
2018-06-12T12:23:32.297Z,77.20
2018-06-12T12:26:02.116Z,76.80
2018-06-12T12:28:31.588Z,78.20
2018-06-12T12:31:04.601Z,78.00
2018-06-12T12:33:33.986Z,76.60
2018-06-12T12:36:03.553Z,77.40
2018-06-12T12:38:32.745Z,78.00
2018-06-12T12:41:02.188Z,76.00
2018-06-12T12:43:31.651Z,75.90
2018-06-12T12:46:01.320Z,76.00
2018-06-12T12:48:30.684Z,75.50
2018-06-12T12:51:00.140Z,77.00
2018-06-12T12:53:29.487Z,76.70
2018-06-12T12:55:59.018Z,77.20
2018-06-12T12:58:28.482Z,78.00
2018-06-12T13:00:57.865Z,77.20
2018-06-12T13:03:30.750Z,75.30
2018-06-12T13:06:00.125Z,78.00
2018-06-12T13:08:29.550Z,77.50
2018-06-12T13:10:58.912Z,76.40
2018-06-12T13:13:28.466Z,76.80
2018-06-12T13:15:58.079Z,77.10
2018-06-12T13:18:28.082Z,75.50
2018-06-12T13:20:57.577Z,77.10
2018-06-12T13:23:29.370Z,75.40
2018-06-12T13:25:58.748Z,74.50
2018-06-12T13:28:28.370Z,73.40
2018-06-12T13:30:57.772Z,74.00
2018-06-12T13:33:27.323Z,75.30
2018-06-12T13:35:56.930Z,73.30
2018-06-12T13:38:26.456Z,73.50
2018-06-12T13:40:55.869Z,72.80
2018-06-12T13:43:25.340Z,73.20
2018-06-12T13:45:54.856Z,75.10
2018-06-12T13:48:24.265Z,75.20
2018-06-12T13:50:54.658Z,74.70
2018-06-12T13:53:24.057Z,74.00
2018-06-12T13:55:53.552Z,72.70
2018-06-12T13:58:22.974Z,75.90
2018-06-12T14:00:53.383Z,75.20
2018-06-12T14:03:22.857Z,75.20
2018-06-12T14:05:52.226Z,74.60
2018-06-12T14:08:21.731Z,75.40
2018-06-12T14:10:51.148Z,74.10
2018-06-12T14:13:20.626Z,74.90
2018-06-12T14:15:50.165Z,76.50
2018-06-12T14:18:19.710Z,76.30
2018-06-12T14:20:48.840Z,75.50
2018-06-12T14:23:19.433Z,76.40
2018-06-12T14:25:48.786Z,76.00
2018-06-12T14:28:19.225Z,78.20
2018-06-12T14:30:48.568Z,77.70
2018-06-12T14:33:18.356Z,77.70
2018-06-12T14:35:47.732Z,80.90
2018-06-12T14:38:17.202Z,81.20
2018-06-12T14:40:47.709Z,81.50
2018-06-12T14:43:17.090Z,80.40
2018-06-12T14:45:46.531Z,81.00
2018-06-12T14:48:16.001Z,81.80
2018-06-12T14:50:45.462Z,82.50
2018-06-12T14:53:14.841Z,82.90
2018-06-12T14:55:44.398Z,84.00
2018-06-12T14:58:13.756Z,82.90
2018-06-12T15:00:43.251Z,82.90
2018-06-12T15:03:12.741Z,82.00
2018-06-12T15:05:42.046Z,81.60
2018-06-12T15:08:11.847Z,83.00
2018-06-12T15:10:41.295Z,83.50
2018-06-12T15:13:10.815Z,81.20
2018-06-12T15:15:40.275Z,80.00
2018-06-12T15:18:10.222Z,79.10
2018-06-12T15:20:39.397Z,78.80
2018-06-12T15:23:08.744Z,78.90
2018-06-12T15:25:38.275Z,79.50
2018-06-12T15:28:07.641Z,81.10
2018-06-12T15:30:37.149Z,81.20
2018-06-12T15:33:06.953Z,82.50
2018-06-12T15:35:36.878Z,80.90
2018-06-12T15:38:07.232Z,79.70
2018-06-12T15:40:36.635Z,80.80
2018-06-12T15:43:07.053Z,80.30
2018-06-12T15:45:36.510Z,81.10
2018-06-12T15:48:06.194Z,79.10
2018-06-12T15:50:35.709Z,81.50
2018-06-12T15:53:05.091Z,80.80
2018-06-12T15:55:34.252Z,79.10
2018-06-12T15:58:03.791Z,80.90
2018-06-12T16:00:33.309Z,80.30
2018-06-12T16:03:02.725Z,81.50
2018-06-12T16:05:32.309Z,82.60
2018-06-12T16:08:01.897Z,80.80
2018-06-12T16:10:31.395Z,81.40
2018-06-12T16:13:00.773Z,81.00
2018-06-12T16:15:30.030Z,81.80
2018-06-12T16:17:59.381Z,82.10
2018-06-12T16:20:28.905Z,81.60
2018-06-12T16:22:58.695Z,81.70
2018-06-12T16:25:28.114Z,82.60
2018-06-12T16:27:57.628Z,82.10
2018-06-12T16:30:27.170Z,83.20
2018-06-12T16:32:56.540Z,83.60
2018-06-12T16:35:25.964Z,83.80
2018-06-12T16:37:55.426Z,81.80
2018-06-12T16:40:25.366Z,82.80
2018-06-12T16:42:54.732Z,82.40
2018-06-12T16:45:24.616Z,84.80
2018-06-12T16:50:22.989Z,83.70
2018-06-12T16:52:52.376Z,83.20
2018-06-12T16:55:22.023Z,82.90
2018-06-12T16:57:51.746Z,83.00
2018-06-12T17:00:21.313Z,84.80
2018-06-12T17:02:51.130Z,84.50
2018-06-12T17:05:20.653Z,84.50
2018-06-12T17:07:50.023Z,83.80
2018-06-12T17:10:19.583Z,82.80
2018-06-12T17:12:49.522Z,83.50
2018-06-12T17:15:22.555Z,83.50
2018-06-12T17:17:52.892Z,83.60
2018-06-12T17:20:22.375Z,82.80
2018-06-12T17:22:51.737Z,83.20
2018-06-12T17:25:21.315Z,83.00
2018-06-12T17:27:50.702Z,83.30
2018-06-12T17:30:21.629Z,82.90
2018-06-12T17:32:50.969Z,82.80
2018-06-12T17:35:21.229Z,82.90
2018-06-12T17:37:50.352Z,83.00
2018-06-12T17:40:19.902Z,83.40
2018-06-12T17:42:49.308Z,83.60
2018-06-12T17:45:18.860Z,82.10
2018-06-12T17:47:48.686Z,81.80
2018-06-12T17:50:18.119Z,81.60
2018-06-12T17:52:47.591Z,80.80
2018-06-12T17:55:16.970Z,79.30
2018-06-12T17:57:46.525Z,77.80
2018-06-12T18:00:15.964Z,76.90
2018-06-12T18:02:45.485Z,76.70
2018-06-12T18:05:14.977Z,74.80
2018-06-12T18:07:44.525Z,70.50
2018-06-12T18:10:13.912Z,67.40
2018-06-12T18:15:42.692Z,66.10
2018-06-12T18:18:12.212Z,65.40
2018-06-12T18:20:45.965Z,65.40
2018-06-12T18:23:15.477Z,64.70
2018-06-12T18:25:44.971Z,63.00
2018-06-12T18:28:14.380Z,62.90
2018-06-12T18:30:48.958Z,63.70
2018-06-12T18:33:18.340Z,65.10
2018-06-12T18:35:47.866Z,67.30
2018-06-12T18:38:17.289Z,68.30
2018-06-12T18:40:46.839Z,70.00
2018-06-12T18:45:46.989Z,73.50
2018-06-12T18:48:16.336Z,75.60
2018-06-12T18:50:45.785Z,77.90
2018-06-12T18:56:12.494Z,79.80
2018-06-12T18:58:41.945Z,81.00
2018-06-12T19:01:11.396Z,81.10
2018-06-12T19:03:40.774Z,82.60
2018-06-12T19:06:10.440Z,83.50
2018-06-12T19:08:39.852Z,84.20
2018-06-12T19:11:09.275Z,84.90
2018-06-12T19:13:38.669Z,85.50
2018-06-12T19:16:08.331Z,85.70
2018-06-12T19:18:37.725Z,86.20
2018-06-12T19:21:07.300Z,86.00
2018-06-12T19:26:05.821Z,86.40
2018-06-12T19:28:35.320Z,86.90
2018-06-12T19:31:05.110Z,87.60
2018-06-12T19:33:34.581Z,87.80
2018-06-12T19:36:04.077Z,87.80
2018-06-12T19:38:33.916Z,88.40
2018-06-12T19:41:03.651Z,89.00
2018-06-12T19:43:39.413Z,89.10
2018-06-12T19:46:08.973Z,88.40
2018-06-12T19:48:38.370Z,89.10
2018-06-12T19:51:07.966Z,89.30
2018-06-12T19:53:37.320Z,89.50
2018-06-12T19:56:06.918Z,89.10
2018-06-12T19:58:36.343Z,89.40
2018-06-12T20:01:06.039Z,90.20
2018-06-12T20:06:04.929Z,90.40
2018-06-12T20:08:34.328Z,90.50
2018-06-12T20:11:03.892Z,90.30
2018-06-12T20:13:33.351Z,90.80
2018-06-12T20:16:02.777Z,90.70
2018-06-12T20:18:32.177Z,90.30
2018-06-12T20:21:01.973Z,90.60
2018-06-12T20:26:00.740Z,90.70
2018-06-12T20:28:30.128Z,91.20
2018-06-12T20:30:59.674Z,91.20
2018-06-12T20:33:29.055Z,91.20
2018-06-12T20:35:58.604Z,91.50
2018-06-12T20:38:28.188Z,91.20
2018-06-12T20:40:57.763Z,90.80
2018-06-12T20:43:27.151Z,91.20
2018-06-12T20:45:56.664Z,91.70
2018-06-12T20:48:26.508Z,91.80
2018-06-12T20:50:55.880Z,91.50
2018-06-12T20:53:25.575Z,91.40
2018-06-12T20:55:55.396Z,91.40
2018-06-12T20:58:24.961Z,91.70
2018-06-12T21:00:54.351Z,91.70
2018-06-12T21:03:23.815Z,91.60
2018-06-12T21:05:53.416Z,91.50
2018-06-12T21:08:22.970Z,91.90
2018-06-12T21:10:52.345Z,91.40
2018-06-12T21:13:22.278Z,91.40
2018-06-12T21:15:51.788Z,91.00
2018-06-12T21:18:21.274Z,91.20
2018-06-12T21:20:50.977Z,91.10
2018-06-12T21:26:17.913Z,91.70
2018-06-12T21:28:47.341Z,91.70
2018-06-12T21:31:16.757Z,91.40
2018-06-12T21:33:46.318Z,91.60
2018-06-12T21:36:15.728Z,91.50
2018-06-12T21:38:45.272Z,91.40
2018-06-12T21:41:14.684Z,91.40
2018-06-12T21:43:44.365Z,91.60
2018-06-12T21:46:13.749Z,92.10
2018-06-12T21:48:43.035Z,91.70
2018-06-12T21:51:12.525Z,91.20
2018-06-12T21:53:41.997Z,90.50
2018-06-12T21:58:40.494Z,88.80
2018-06-12T22:01:09.852Z,89.00
2018-06-12T22:03:39.121Z,88.70
2018-06-12T22:06:08.504Z,88.70
2018-06-12T22:08:38.056Z,88.80
2018-06-12T22:11:07.429Z,88.30
2018-06-12T22:13:36.959Z,87.50
2018-06-12T22:16:06.424Z,87.00
2018-06-12T22:18:35.680Z,86.50
2018-06-12T22:21:05.074Z,86.30
2018-06-12T22:23:34.597Z,86.40
2018-06-12T22:26:04.017Z,86.30
2018-06-12T22:28:33.580Z,86.10
2018-06-12T22:31:03.018Z,86.30
2018-06-12T22:33:32.592Z,86.50
2018-06-12T22:36:02.060Z,86.70
2018-06-12T22:38:31.641Z,86.80
2018-06-12T22:41:01.001Z,86.60
2018-06-12T22:43:30.535Z,86.60
2018-06-12T22:46:00.254Z,86.40
2018-06-12T22:48:29.813Z,86.20
2018-06-12T22:50:59.213Z,86.30
2018-06-12T22:53:28.866Z,85.80
2018-06-12T22:55:58.244Z,85.70
2018-06-12T22:58:27.668Z,86.10
2018-06-12T23:00:57.097Z,85.10
2018-06-12T23:03:26.628Z,84.90
2018-06-12T23:05:55.982Z,85.80
2018-06-12T23:08:25.433Z,84.70
2018-06-12T23:10:54.832Z,85.30
2018-06-12T23:13:24.328Z,85.40
2018-06-12T23:15:53.736Z,85.10
2018-06-12T23:18:23.247Z,84.50
2018-06-12T23:21:09.952Z,84.20
2018-06-12T23:23:39.178Z,84.50
2018-06-12T23:26:08.362Z,84.80
2018-06-12T23:28:37.901Z,83.50
2018-06-12T23:31:07.376Z,84.90
2018-06-12T23:33:36.875Z,85.80
2018-06-12T23:36:06.293Z,84.70
2018-06-12T23:38:35.497Z,84.60
2018-06-12T23:41:04.909Z,85.10
2018-06-12T23:43:34.226Z,85.30
2018-06-12T23:46:03.618Z,85.40
2018-06-12T23:48:33.046Z,85.00
2018-06-12T23:51:02.460Z,85.10
2018-06-12T23:53:31.896Z,85.90
2018-06-12T23:56:01.293Z,85.00
2018-06-12T23:58:30.777Z,85.80
